MKJP/KIN METAR and TAF weather

Enter ICAO airport designator
Station Type Date Time Source
MKJP METAR 2020/04/04 05:00 UTC NOAA

MKJP 040500Z 32006KT 9999 BKN020 27/22 Q1012


Station Type Date Time Source
MKJP Decoded METAR 2020/04/04 05:00 UTC NOAA

Kingston / Norman Manley, Jamaica (MKJP) 17-56N 076-47W 14M
Apr 04, 2020 - 01:00 AM EDT / 2020.04.04 0500 UTC
Wind: from the NW (320 degrees) at 7 MPH (6 KT):0
Visibility: greater than 7 mile(s):0
Sky conditions: mostly cloudy
Temperature: 80 F (27 C)
Dew Point: 71 F (22 C)
Relative Humidity: 74%
Pressure (altimeter): 29.88 in. Hg (1012 hPa)
ob: MKJP 040500Z 32006KT 9999 BKN020 27/22 Q1012
cycle: 5

Station Type Date Time Source
MKJP TAF 2020/04/04 06:25 UTC NOAA

TAF COR MKJP 040515Z 0406/0506 VRB02KT 9999 SCT020
BECMG 0415/0417 17008KT FEW022
TEMPO 0418/0424 SHRA SCT020 SCT032
BECMG 0501/0503 34004KT

Example: see airport list